Terminal Aerodrome Forecast
Issued by NWS Bismarck, ND

Home | Current Version | Previous Version | Graphics & Text | Print | Product List | Glossary On
Versions: 1 2 3 4 5 6 7 8 9 10 11 12
000
FTUS43 KBIS 292300
TAFBIS
TAF
KBIS 292327Z 3000/3024 31016KT P6SM SCT070
     FM300200 24003KT P6SM SCT060 BKN150
     FM301500 29014KT P6SM SCT060=

USA.gov is the U.S. government's official web portal to all federal, state and local government web resources and services.